sensor_id;sensor_type;location;lat;lon;timestamp;P1;durP1;ratioP1;P2;durP2;ratioP2
29906;SDS011;16776;50.958;10.994;2023-06-22T00:01:20;0.95;;;0.95;;
29906;SDS011;16776;50.958;10.994;2023-06-22T00:03:47;1.13;;;1.00;;
29906;SDS011;16776;50.958;10.994;2023-06-22T00:06:13;0.75;;;0.75;;
29906;SDS011;16776;50.958;10.994;2023-06-22T00:08:41;0.77;;;0.77;;
29906;SDS011;16776;50.958;10.994;2023-06-22T00:11:11;1.17;;;1.08;;
29906;SDS011;16776;50.958;10.994;2023-06-22T00:13:38;0.93;;;0.80;;
29906;SDS011;16776;50.958;10.994;2023-06-22T00:16:05;1.30;;;1.20;;
29906;SDS011;16776;50.958;10.994;2023-06-22T00:18:32;0.95;;;0.88;;
29906;SDS011;16776;50.958;10.994;2023-06-22T00:21:01;0.88;;;0.88;;
29906;SDS011;16776;50.958;10.994;2023-06-22T00:23:27;0.77;;;0.77;;
29906;SDS011;16776;50.958;10.994;2023-06-22T00:26:01;1.20;;;1.10;;
29906;SDS011;16776;50.958;10.994;2023-06-22T00:28:30;2.78;;;1.25;;
29906;SDS011;16776;50.958;10.994;2023-06-22T00:30:57;1.10;;;1.00;;
29906;SDS011;16776;50.958;10.994;2023-06-22T00:33:24;1.10;;;1.00;;
29906;SDS011;16776;50.958;10.994;2023-06-22T00:35:53;0.90;;;0.80;;
29906;SDS011;16776;50.958;10.994;2023-06-22T00:38:22;1.10;;;1.00;;
29906;SDS011;16776;50.958;10.994;2023-06-22T00:40:49;1.30;;;1.05;;
29906;SDS011;16776;50.958;10.994;2023-06-22T00:43:17;1.20;;;1.10;;
29906;SDS011;16776;50.958;10.994;2023-06-22T00:45:43;0.80;;;0.80;;
29906;SDS011;16776;50.958;10.994;2023-06-22T00:48:10;1.17;;;1.10;;
29906;SDS011;16776;50.958;10.994;2023-06-22T00:50:38;1.10;;;1.00;;
29906;SDS011;16776;50.958;10.994;2023-06-22T00:53:06;0.90;;;0.90;;
29906;SDS011;16776;50.958;10.994;2023-06-22T00:55:40;1.20;;;1.10;;
29906;SDS011;16776;50.958;10.994;2023-06-22T00:58:10;1.10;;;1.02;;
29906;SDS011;16776;50.958;10.994;2023-06-22T01:00:39;1.38;;;1.13;;
29906;SDS011;16776;50.958;10.994;2023-06-22T01:03:06;1.10;;;0.90;;
29906;SDS011;16776;50.958;10.994;2023-06-22T01:05:34;1.27;;;1.17;;
29906;SDS011;16776;50.958;10.994;2023-06-22T01:08:11;0.98;;;0.93;;
29906;SDS011;16776;50.958;10.994;2023-06-22T01:10:47;1.00;;;0.90;;
29906;SDS011;16776;50.958;10.994;2023-06-22T01:13:18;1.08;;;1.00;;
29906;SDS011;16776;50.958;10.994;2023-06-22T01:16:02;1.45;;;1.35;;
29906;SDS011;16776;50.958;10.994;2023-06-22T01:18:31;0.98;;;0.90;;
29906;SDS011;16776;50.958;10.994;2023-06-22T01:21:03;1.27;;;1.10;;
29906;SDS011;16776;50.958;10.994;2023-06-22T01:23:39;1.20;;;1.10;;
29906;SDS011;16776;50.958;10.994;2023-06-22T01:26:16;1.00;;;0.98;;
29906;SDS011;16776;50.958;10.994;2023-06-22T01:28:46;1.08;;;0.98;;
29906;SDS011;16776;50.958;10.994;2023-06-22T01:31:15;1.23;;;1.13;;
29906;SDS011;16776;50.958;10.994;2023-06-22T01:33:45;1.10;;;1.00;;
29906;SDS011;16776;50.958;10.994;2023-06-22T01:36:15;1.20;;;1.10;;
29906;SDS011;16776;50.958;10.994;2023-06-22T01:38:43;1.20;;;1.10;;
29906;SDS011;16776;50.958;10.994;2023-06-22T01:41:11;1.13;;;1.08;;
29906;SDS011;16776;50.958;10.994;2023-06-22T01:43:39;0.88;;;0.85;;
29906;SDS011;16776;50.958;10.994;2023-06-22T01:46:11;1.50;;;1.40;;
29906;SDS011;16776;50.958;10.994;2023-06-22T01:48:38;2.08;;;1.00;;
29906;SDS011;16776;50.958;10.994;2023-06-22T01:51:06;1.20;;;1.10;;
29906;SDS011;16776;50.958;10.994;2023-06-22T01:53:32;0.95;;;0.90;;
29906;SDS011;16776;50.958;10.994;2023-06-22T01:56:02;1.30;;;1.20;;
29906;SDS011;16776;50.958;10.994;2023-06-22T01:58:29;1.33;;;1.10;;
29906;SDS011;16776;50.958;10.994;2023-06-22T02:00:58;0.90;;;0.90;;
29906;SDS011;16776;50.958;10.994;2023-06-22T02:03:35;0.95;;;0.90;;
29906;SDS011;16776;50.958;10.994;2023-06-22T02:06:11;1.30;;;1.20;;
29906;SDS011;16776;50.958;10.994;2023-06-22T02:08:45;1.20;;;1.10;;
29906;SDS011;16776;50.958;10.994;2023-06-22T02:11:16;1.00;;;0.93;;
29906;SDS011;16776;50.958;10.994;2023-06-22T02:13:47;0.80;;;0.80;;
29906;SDS011;16776;50.958;10.994;2023-06-22T02:16:15;2.20;;;1.17;;
29906;SDS011;16776;50.958;10.994;2023-06-22T02:18:47;1.33;;;1.23;;
29906;SDS011;16776;50.958;10.994;2023-06-22T02:21:16;1.40;;;1.30;;
29906;SDS011;16776;50.958;10.994;2023-06-22T02:23:42;2.78;;;1.30;;
29906;SDS011;16776;50.958;10.994;2023-06-22T02:26:09;1.20;;;1.10;;
29906;SDS011;16776;50.958;10.994;2023-06-22T02:28:36;1.05;;;1.00;;
29906;SDS011;16776;50.958;10.994;2023-06-22T02:31:02;1.20;;;1.10;;
29906;SDS011;16776;50.958;10.994;2023-06-22T02:33:29;1.20;;;1.10;;
29906;SDS011;16776;50.958;10.994;2023-06-22T02:35:57;1.38;;;1.27;;
29906;SDS011;16776;50.958;10.994;2023-06-22T02:38:24;1.17;;;1.02;;
29906;SDS011;16776;50.958;10.994;2023-06-22T02:40:57;1.00;;;1.00;;
29906;SDS011;16776;50.958;10.994;2023-06-22T02:43:25;1.27;;;1.17;;
29906;SDS011;16776;50.958;10.994;2023-06-22T02:45:52;4.32;;;1.58;;
29906;SDS011;16776;50.958;10.994;2023-06-22T02:48:24;1.30;;;1.20;;
29906;SDS011;16776;50.958;10.994;2023-06-22T02:50:51;1.13;;;1.02;;
29906;SDS011;16776;50.958;10.994;2023-06-22T02:53:19;1.38;;;1.27;;
29906;SDS011;16776;50.958;10.994;2023-06-22T02:55:45;1.20;;;1.10;;
29906;SDS011;16776;50.958;10.994;2023-06-22T02:58:12;1.70;;;1.20;;
29906;SDS011;16776;50.958;10.994;2023-06-22T03:00:39;1.17;;;1.05;;
29906;SDS011;16776;50.958;10.994;2023-06-22T03:03:06;1.42;;;1.20;;
29906;SDS011;16776;50.958;10.994;2023-06-22T03:05:32;1.25;;;1.15;;
29906;SDS011;16776;50.958;10.994;2023-06-22T03:08:01;1.15;;;1.05;;
29906;SDS011;16776;50.958;10.994;2023-06-22T03:10:31;1.48;;;1.38;;
29906;SDS011;16776;50.958;10.994;2023-06-22T03:12:58;1.50;;;1.40;;
29906;SDS011;16776;50.958;10.994;2023-06-22T03:15:24;1.63;;;1.48;;
29906;SDS011;16776;50.958;10.994;2023-06-22T03:17:58;1.63;;;1.40;;
29906;SDS011;16776;50.958;10.994;2023-06-22T03:20:27;1.92;;;1.70;;
29906;SDS011;16776;50.958;10.994;2023-06-22T03:22:58;1.60;;;1.50;;
29906;SDS011;16776;50.958;10.994;2023-06-22T03:25:25;5.40;;;2.00;;
29906;SDS011;16776;50.958;10.994;2023-06-22T03:27:53;1.67;;;1.45;;
29906;SDS011;16776;50.958;10.994;2023-06-22T03:30:20;1.75;;;1.65;;
29906;SDS011;16776;50.958;10.994;2023-06-22T03:32:47;1.45;;;1.35;;
29906;SDS011;16776;50.958;10.994;2023-06-22T03:35:14;3.08;;;1.55;;
29906;SDS011;16776;50.958;10.994;2023-06-22T03:37:40;1.48;;;1.38;;
29906;SDS011;16776;50.958;10.994;2023-06-22T03:40:07;1.30;;;1.20;;
29906;SDS011;16776;50.958;10.994;2023-06-22T03:42:35;1.75;;;1.45;;
29906;SDS011;16776;50.958;10.994;2023-06-22T03:45:03;2.67;;;1.70;;
29906;SDS011;16776;50.958;10.994;2023-06-22T03:47:31;2.38;;;1.75;;
29906;SDS011;16776;50.958;10.994;2023-06-22T03:49:58;2.25;;;1.92;;
29906;SDS011;16776;50.958;10.994;2023-06-22T03:52:26;2.00;;;1.75;;
29906;SDS011;16776;50.958;10.994;2023-06-22T03:54:55;1.80;;;1.70;;
29906;SDS011;16776;50.958;10.994;2023-06-22T03:57:23;1.52;;;1.42;;
29906;SDS011;16776;50.958;10.994;2023-06-22T03:59:50;2.05;;;1.70;;
29906;SDS011;16776;50.958;10.994;2023-06-22T04:02:18;2.33;;;1.90;;
29906;SDS011;16776;50.958;10.994;2023-06-22T04:04:45;2.92;;;1.65;;
29906;SDS011;16776;50.958;10.994;2023-06-22T04:07:11;1.50;;;1.40;;
29906;SDS011;16776;50.958;10.994;2023-06-22T04:09:38;2.00;;;1.65;;
29906;SDS011;16776;50.958;10.994;2023-06-22T04:12:05;2.15;;;1.95;;
29906;SDS011;16776;50.958;10.994;2023-06-22T04:14:32;2.17;;;1.98;;
29906;SDS011;16776;50.958;10.994;2023-06-22T04:16:58;2.28;;;2.08;;
29906;SDS011;16776;50.958;10.994;2023-06-22T04:19:29;2.20;;;2.00;;
29906;SDS011;16776;50.958;10.994;2023-06-22T04:21:56;1.20;;;1.10;;
29906;SDS011;16776;50.958;10.994;2023-06-22T04:24:24;1.30;;;1.20;;
29906;SDS011;16776;50.958;10.994;2023-06-22T04:26:53;1.23;;;1.00;;
29906;SDS011;16776;50.958;10.994;2023-06-22T04:29:20;2.67;;;1.92;;
29906;SDS011;16776;50.958;10.994;2023-06-22T04:31:58;1.80;;;1.48;;
29906;SDS011;16776;50.958;10.994;2023-06-22T04:34:32;2.78;;;1.63;;
29906;SDS011;16776;50.958;10.994;2023-06-22T04:36:59;1.35;;;1.25;;
29906;SDS011;16776;50.958;10.994;2023-06-22T04:39:25;2.08;;;1.88;;
29906;SDS011;16776;50.958;10.994;2023-06-22T04:41:52;2.08;;;1.70;;
29906;SDS011;16776;50.958;10.994;2023-06-22T04:44:20;1.67;;;1.58;;
29906;SDS011;16776;50.958;10.994;2023-06-22T04:46:50;2.30;;;1.80;;
29906;SDS011;16776;50.958;10.994;2023-06-22T04:49:19;1.65;;;1.55;;
29906;SDS011;16776;50.958;10.994;2023-06-22T04:51:49;3.05;;;1.70;;
29906;SDS011;16776;50.958;10.994;2023-06-22T04:54:20;3.25;;;1.85;;
29906;SDS011;16776;50.958;10.994;2023-06-22T04:57:02;2.53;;;1.60;;
29906;SDS011;16776;50.958;10.994;2023-06-22T04:59:30;2.22;;;1.58;;
29906;SDS011;16776;50.958;10.994;2023-06-22T05:01:57;2.75;;;1.92;;
29906;SDS011;16776;50.958;10.994;2023-06-22T05:04:27;1.60;;;1.50;;
29906;SDS011;16776;50.958;10.994;2023-06-22T05:06:57;1.65;;;1.42;;
29906;SDS011;16776;50.958;10.994;2023-06-22T05:09:26;2.65;;;1.63;;
29906;SDS011;16776;50.958;10.994;2023-06-22T05:11:53;1.60;;;1.50;;
29906;SDS011;16776;50.958;10.994;2023-06-22T05:14:19;1.58;;;1.48;;
29906;SDS011;16776;50.958;10.994;2023-06-22T05:16:46;1.92;;;1.70;;
29906;SDS011;16776;50.958;10.994;2023-06-22T05:19:12;1.55;;;1.45;;
29906;SDS011;16776;50.958;10.994;2023-06-22T05:21:39;1.90;;;1.80;;
29906;SDS011;16776;50.958;10.994;2023-06-22T05:24:07;2.00;;;1.90;;
29906;SDS011;16776;50.958;10.994;2023-06-22T05:26:34;1.70;;;1.60;;
29906;SDS011;16776;50.958;10.994;2023-06-22T05:29:02;1.67;;;1.58;;
29906;SDS011;16776;50.958;10.994;2023-06-22T05:31:29;2.55;;;1.65;;
29906;SDS011;16776;50.958;10.994;2023-06-22T05:33:56;1.73;;;1.63;;
29906;SDS011;16776;50.958;10.994;2023-06-22T05:36:26;1.70;;;1.42;;
29906;SDS011;16776;50.958;10.994;2023-06-22T05:38:56;2.17;;;1.70;;
29906;SDS011;16776;50.958;10.994;2023-06-22T05:41:24;2.60;;;2.08;;
29906;SDS011;16776;50.958;10.994;2023-06-22T05:43:51;1.95;;;1.85;;
29906;SDS011;16776;50.958;10.994;2023-06-22T05:46:18;1.77;;;1.67;;
29906;SDS011;16776;50.958;10.994;2023-06-22T05:48:45;2.00;;;1.88;;
29906;SDS011;16776;50.958;10.994;2023-06-22T05:51:12;2.25;;;2.05;;
29906;SDS011;16776;50.958;10.994;2023-06-22T05:53:38;2.20;;;2.00;;
29906;SDS011;16776;50.958;10.994;2023-06-22T05:56:05;2.33;;;2.13;;
29906;SDS011;16776;50.958;10.994;2023-06-22T05:58:33;3.90;;;1.95;;
29906;SDS011;16776;50.958;10.994;2023-06-22T06:01:02;2.25;;;2.10;;
29906;SDS011;16776;50.958;10.994;2023-06-22T06:03:29;2.53;;;2.10;;
29906;SDS011;16776;50.958;10.994;2023-06-22T06:05:55;2.05;;;1.77;;
29906;SDS011;16776;50.958;10.994;2023-06-22T06:08:22;2.88;;;2.20;;
29906;SDS011;16776;50.958;10.994;2023-06-22T06:10:48;1.77;;;1.63;;
29906;SDS011;16776;50.958;10.994;2023-06-22T06:13:15;2.55;;;2.20;;
29906;SDS011;16776;50.958;10.994;2023-06-22T06:15:43;2.78;;;2.30;;
29906;SDS011;16776;50.958;10.994;2023-06-22T06:18:10;2.13;;;1.88;;
29906;SDS011;16776;50.958;10.994;2023-06-22T06:20:36;2.13;;;1.92;;
29906;SDS011;16776;50.958;10.994;2023-06-22T06:23:05;2.55;;;1.88;;
29906;SDS011;16776;50.958;10.994;2023-06-22T06:25:32;1.90;;;1.80;;
29906;SDS011;16776;50.958;10.994;2023-06-22T06:27:58;2.22;;;2.03;;
29906;SDS011;16776;50.958;10.994;2023-06-22T06:30:25;2.17;;;2.00;;
29906;SDS011;16776;50.958;10.994;2023-06-22T06:32:53;2.05;;;1.80;;
29906;SDS011;16776;50.958;10.994;2023-06-22T06:35:20;2.13;;;1.88;;
29906;SDS011;16776;50.958;10.994;2023-06-22T06:37:48;2.45;;;2.25;;
29906;SDS011;16776;50.958;10.994;2023-06-22T06:40:16;1.98;;;1.77;;
29906;SDS011;16776;50.958;10.994;2023-06-22T06:42:44;3.30;;;2.22;;
29906;SDS011;16776;50.958;10.994;2023-06-22T06:45:12;3.15;;;2.05;;
29906;SDS011;16776;50.958;10.994;2023-06-22T06:47:41;2.72;;;2.53;;
29906;SDS011;16776;50.958;10.994;2023-06-22T06:50:09;2.35;;;2.15;;
29906;SDS011;16776;50.958;10.994;2023-06-22T06:52:36;3.13;;;2.47;;
29906;SDS011;16776;50.958;10.994;2023-06-22T06:55:03;2.40;;;2.20;;
29906;SDS011;16776;50.958;10.994;2023-06-22T06:57:33;3.05;;;2.60;;
29906;SDS011;16776;50.958;10.994;2023-06-22T07:00:02;2.42;;;2.22;;
29906;SDS011;16776;50.958;10.994;2023-06-22T07:02:34;3.20;;;2.40;;
29906;SDS011;16776;50.958;10.994;2023-06-22T07:05:01;3.42;;;2.17;;
29906;SDS011;16776;50.958;10.994;2023-06-22T07:07:30;2.85;;;2.38;;
29906;SDS011;16776;50.958;10.994;2023-06-22T07:09:57;3.05;;;2.58;;
29906;SDS011;16776;50.958;10.994;2023-06-22T07:12:24;3.45;;;3.15;;
29906;SDS011;16776;50.958;10.994;2023-06-22T07:14:51;3.00;;;2.63;;
29906;SDS011;16776;50.958;10.994;2023-06-22T07:17:17;2.75;;;2.53;;
29906;SDS011;16776;50.958;10.994;2023-06-22T07:19:45;2.50;;;2.30;;
29906;SDS011;16776;50.958;10.994;2023-06-22T07:22:12;2.63;;;2.42;;
29906;SDS011;16776;50.958;10.994;2023-06-22T07:24:40;3.03;;;2.38;;
29906;SDS011;16776;50.958;10.994;2023-06-22T07:27:06;4.43;;;2.90;;
29906;SDS011;16776;50.958;10.994;2023-06-22T07:29:36;2.97;;;2.67;;
29906;SDS011;16776;50.958;10.994;2023-06-22T07:32:07;3.58;;;3.05;;
29906;SDS011;16776;50.958;10.994;2023-06-22T07:34:34;2.95;;;2.75;;
29906;SDS011;16776;50.958;10.994;2023-06-22T07:37:00;2.78;;;2.53;;
29906;SDS011;16776;50.958;10.994;2023-06-22T07:39:27;2.90;;;2.35;;
29906;SDS011;16776;50.958;10.994;2023-06-22T07:41:55;2.75;;;2.55;;
29906;SDS011;16776;50.958;10.994;2023-06-22T07:44:22;4.00;;;2.72;;
29906;SDS011;16776;50.958;10.994;2023-06-22T07:46:48;3.50;;;3.10;;
29906;SDS011;16776;50.958;10.994;2023-06-22T07:49:16;3.00;;;2.72;;
29906;SDS011;16776;50.958;10.994;2023-06-22T07:51:43;2.70;;;2.50;;
29906;SDS011;16776;50.958;10.994;2023-06-22T07:54:10;4.25;;;3.58;;
29906;SDS011;16776;50.958;10.994;2023-06-22T07:56:36;3.58;;;3.28;;
29906;SDS011;16776;50.958;10.994;2023-06-22T07:59:04;2.63;;;2.42;;
29906;SDS011;16776;50.958;10.994;2023-06-22T08:01:31;4.82;;;2.97;;
29906;SDS011;16776;50.958;10.994;2023-06-22T08:04:00;3.75;;;3.00;;
29906;SDS011;16776;50.958;10.994;2023-06-22T08:06:30;2.42;;;2.25;;
29906;SDS011;16776;50.958;10.994;2023-06-22T08:08:57;3.10;;;2.80;;
29906;SDS011;16776;50.958;10.994;2023-06-22T08:11:24;2.90;;;2.67;;
29906;SDS011;16776;50.958;10.994;2023-06-22T08:13:50;2.97;;;2.65;;
29906;SDS011;16776;50.958;10.994;2023-06-22T08:16:21;3.40;;;3.00;;
29906;SDS011;16776;50.958;10.994;2023-06-22T08:18:48;3.80;;;3.22;;
29906;SDS011;16776;50.958;10.994;2023-06-22T08:21:17;4.10;;;2.97;;
29906;SDS011;16776;50.958;10.994;2023-06-22T08:23:44;3.00;;;2.80;;
29906;SDS011;16776;50.958;10.994;2023-06-22T08:26:10;3.05;;;2.80;;
29906;SDS011;16776;50.958;10.994;2023-06-22T08:28:38;4.03;;;3.17;;
29906;SDS011;16776;50.958;10.994;2023-06-22T08:31:05;2.58;;;2.38;;
29906;SDS011;16776;50.958;10.994;2023-06-22T08:33:33;3.45;;;2.95;;
29906;SDS011;16776;50.958;10.994;2023-06-22T08:35:59;3.17;;;2.95;;
29906;SDS011;16776;50.958;10.994;2023-06-22T08:38:26;3.15;;;2.85;;
29906;SDS011;16776;50.958;10.994;2023-06-22T08:40:52;3.47;;;3.15;;
29906;SDS011;16776;50.958;10.994;2023-06-22T08:43:19;3.63;;;3.33;;
29906;SDS011;16776;50.958;10.994;2023-06-22T08:45:46;4.32;;;3.03;;
29906;SDS011;16776;50.958;10.994;2023-06-22T08:48:12;3.53;;;3.22;;
29906;SDS011;16776;50.958;10.994;2023-06-22T08:50:40;3.28;;;3.00;;
29906;SDS011;16776;50.958;10.994;2023-06-22T08:53:09;3.50;;;3.10;;
29906;SDS011;16776;50.958;10.994;2023-06-22T08:55:36;3.30;;;3.03;;
29906;SDS011;16776;50.958;10.994;2023-06-22T08:58:02;4.18;;;3.78;;
29906;SDS011;16776;50.958;10.994;2023-06-22T09:00:30;4.03;;;3.63;;
29906;SDS011;16776;50.958;10.994;2023-06-22T09:02:59;3.60;;;3.30;;
29906;SDS011;16776;50.958;10.994;2023-06-22T09:05:28;3.78;;;3.28;;
29906;SDS011;16776;50.958;10.994;2023-06-22T09:07:57;3.30;;;3.10;;
29906;SDS011;16776;50.958;10.994;2023-06-22T09:10:24;3.53;;;3.22;;
29906;SDS011;16776;50.958;10.994;2023-06-22T09:12:51;3.30;;;3.03;;
29906;SDS011;16776;50.958;10.994;2023-06-22T09:15:18;3.63;;;3.33;;
29906;SDS011;16776;50.958;10.994;2023-06-22T09:17:44;3.40;;;3.10;;
29906;SDS011;16776;50.958;10.994;2023-06-22T09:20:12;3.80;;;3.50;;
29906;SDS011;16776;50.958;10.994;2023-06-22T09:22:39;3.45;;;3.08;;
29906;SDS011;16776;50.958;10.994;2023-06-22T09:25:07;3.65;;;3.03;;
29906;SDS011;16776;50.958;10.994;2023-06-22T09:27:34;3.47;;;3.20;;
29906;SDS011;16776;50.958;10.994;2023-06-22T09:30:03;4.00;;;3.67;;
29906;SDS011;16776;50.958;10.994;2023-06-22T09:32:31;3.60;;;3.30;;
29906;SDS011;16776;50.958;10.994;2023-06-22T09:34:58;3.53;;;3.22;;
29906;SDS011;16776;50.958;10.994;2023-06-22T09:37:24;3.80;;;3.50;;
29906;SDS011;16776;50.958;10.994;2023-06-22T09:39:51;3.42;;;3.15;;
29906;SDS011;16776;50.958;10.994;2023-06-22T09:42:19;4.13;;;3.70;;
29906;SDS011;16776;50.958;10.994;2023-06-22T09:44:46;3.75;;;3.45;;
29906;SDS011;16776;50.958;10.994;2023-06-22T09:47:12;3.97;;;3.67;;
29906;SDS011;16776;50.958;10.994;2023-06-22T09:49:39;3.58;;;3.28;;
29906;SDS011;16776;50.958;10.994;2023-06-22T09:52:05;3.50;;;3.20;;
29906;SDS011;16776;50.958;10.994;2023-06-22T09:54:33;4.00;;;3.70;;
29906;SDS011;16776;50.958;10.994;2023-06-22T09:56:59;4.25;;;3.85;;
29906;SDS011;16776;50.958;10.994;2023-06-22T09:59:27;4.07;;;3.78;;
29906;SDS011;16776;50.958;10.994;2023-06-22T10:01:54;4.25;;;3.55;;
29906;SDS011;16776;50.958;10.994;2023-06-22T10:04:20;3.92;;;3.63;;
29906;SDS011;16776;50.958;10.994;2023-06-22T10:06:47;4.22;;;3.83;;
29906;SDS011;16776;50.958;10.994;2023-06-22T10:09:13;4.13;;;3.78;;
29906;SDS011;16776;50.958;10.994;2023-06-22T10:11:40;5.28;;;4.45;;
29906;SDS011;16776;50.958;10.994;2023-06-22T10:14:06;5.15;;;3.42;;
29906;SDS011;16776;50.958;10.994;2023-06-22T10:16:36;4.47;;;4.07;;
29906;SDS011;16776;50.958;10.994;2023-06-22T10:19:02;4.70;;;4.30;;
29906;SDS011;16776;50.958;10.994;2023-06-22T10:21:29;5.32;;;4.82;;
29906;SDS011;16776;50.958;10.994;2023-06-22T10:23:56;4.82;;;3.75;;
29906;SDS011;16776;50.958;10.994;2023-06-22T10:26:23;4.40;;;4.00;;
29906;SDS011;16776;50.958;10.994;2023-06-22T10:28:50;4.35;;;3.78;;
29906;SDS011;16776;50.958;10.994;2023-06-22T10:31:16;4.32;;;3.90;;
29906;SDS011;16776;50.958;10.994;2023-06-22T10:33:44;4.78;;;4.22;;
29906;SDS011;16776;50.958;10.994;2023-06-22T10:36:11;3.97;;;3.67;;
29906;SDS011;16776;50.958;10.994;2023-06-22T10:38:37;3.55;;;3.25;;
29906;SDS011;16776;50.958;10.994;2023-06-22T10:41:04;4.35;;;3.95;;
29906;SDS011;16776;50.958;10.994;2023-06-22T10:43:30;4.00;;;3.67;;
29906;SDS011;16776;50.958;10.994;2023-06-22T10:45:57;4.03;;;3.72;;
29906;SDS011;16776;50.958;10.994;2023-06-22T10:48:25;3.88;;;3.58;;
29906;SDS011;16776;50.958;10.994;2023-06-22T10:50:53;3.95;;;3.50;;
29906;SDS011;16776;50.958;10.994;2023-06-22T10:53:20;3.65;;;3.35;;
29906;SDS011;16776;50.958;10.994;2023-06-22T10:55:46;4.32;;;3.92;;
29906;SDS011;16776;50.958;10.994;2023-06-22T10:58:13;4.18;;;3.78;;
29906;SDS011;16776;50.958;10.994;2023-06-22T11:00:39;3.58;;;3.28;;
29906;SDS011;16776;50.958;10.994;2023-06-22T11:03:06;4.60;;;3.65;;
29906;SDS011;16776;50.958;10.994;2023-06-22T11:05:33;3.70;;;3.50;;
29906;SDS011;16776;50.958;10.994;2023-06-22T11:08:01;4.50;;;4.10;;
29906;SDS011;16776;50.958;10.994;2023-06-22T11:10:27;4.45;;;4.05;;
29906;SDS011;16776;50.958;10.994;2023-06-22T11:12:54;5.97;;;3.70;;
29906;SDS011;16776;50.958;10.994;2023-06-22T11:15:22;3.67;;;3.38;;
29906;SDS011;16776;50.958;10.994;2023-06-22T11:17:49;4.30;;;3.97;;
29906;SDS011;16776;50.958;10.994;2023-06-22T11:20:16;4.00;;;3.60;;
29906;SDS011;16776;50.958;10.994;2023-06-22T11:22:42;4.15;;;3.50;;
29906;SDS011;16776;50.958;10.994;2023-06-22T11:25:10;3.92;;;3.63;;
29906;SDS011;16776;50.958;10.994;2023-06-22T11:27:37;4.13;;;3.50;;
29906;SDS011;16776;50.958;10.994;2023-06-22T11:30:05;3.90;;;3.60;;
29906;SDS011;16776;50.958;10.994;2023-06-22T11:32:32;3.95;;;3.65;;
29906;SDS011;16776;50.958;10.994;2023-06-22T11:34:58;4.72;;;4.10;;
29906;SDS011;16776;50.958;10.994;2023-06-22T11:37:25;3.80;;;3.50;;
29906;SDS011;16776;50.958;10.994;2023-06-22T11:39:52;3.38;;;3.08;;
29906;SDS011;16776;50.958;10.994;2023-06-22T11:42:21;3.53;;;3.22;;
29906;SDS011;16776;50.958;10.994;2023-06-22T11:44:48;3.78;;;3.47;;
29906;SDS011;16776;50.958;10.994;2023-06-22T11:47:15;4.28;;;3.90;;
29906;SDS011;16776;50.958;10.994;2023-06-22T11:49:43;4.63;;;3.83;;
29906;SDS011;16776;50.958;10.994;2023-06-22T11:52:10;4.07;;;3.53;;
29906;SDS011;16776;50.958;10.994;2023-06-22T11:54:37;3.67;;;3.38;;
29906;SDS011;16776;50.958;10.994;2023-06-22T11:57:03;3.92;;;3.35;;
29906;SDS011;16776;50.958;10.994;2023-06-22T11:59:32;5.13;;;3.40;;
29906;SDS011;16776;50.958;10.994;2023-06-22T12:01:59;3.72;;;3.42;;
29906;SDS011;16776;50.958;10.994;2023-06-22T12:04:25;3.65;;;3.35;;
29906;SDS011;16776;50.958;10.994;2023-06-22T12:06:55;4.00;;;3.70;;
29906;SDS011;16776;50.958;10.994;2023-06-22T12:09:23;3.97;;;3.67;;
29906;SDS011;16776;50.958;10.994;2023-06-22T12:11:49;3.70;;;3.40;;
29906;SDS011;16776;50.958;10.994;2023-06-22T12:14:16;3.88;;;3.53;;
29906;SDS011;16776;50.958;10.994;2023-06-22T12:16:44;4.13;;;3.65;;
29906;SDS011;16776;50.958;10.994;2023-06-22T12:19:11;4.53;;;3.88;;
29906;SDS011;16776;50.958;10.994;2023-06-22T12:21:39;4.70;;;3.67;;
29906;SDS011;16776;50.958;10.994;2023-06-22T12:24:06;4.47;;;3.80;;
29906;SDS011;16776;50.958;10.994;2023-06-22T12:26:33;4.15;;;3.70;;
29906;SDS011;16776;50.958;10.994;2023-06-22T12:28:59;3.90;;;3.50;;
29906;SDS011;16776;50.958;10.994;2023-06-22T12:31:26;3.33;;;2.97;;
29906;SDS011;16776;50.958;10.994;2023-06-22T12:33:54;4.50;;;4.10;;
29906;SDS011;16776;50.958;10.994;2023-06-22T12:36:20;4.35;;;3.95;;
29906;SDS011;16776;50.958;10.994;2023-06-22T12:38:47;3.75;;;3.50;;
29906;SDS011;16776;50.958;10.994;2023-06-22T12:41:14;4.68;;;4.25;;
29906;SDS011;16776;50.958;10.994;2023-06-22T12:43:40;3.90;;;3.60;;
29906;SDS011;16776;50.958;10.994;2023-06-22T12:46:07;4.18;;;3.85;;
29906;SDS011;16776;50.958;10.994;2023-06-22T12:48:34;4.20;;;3.90;;
29906;SDS011;16776;50.958;10.994;2023-06-22T12:51:07;3.17;;;2.95;;
29906;SDS011;16776;50.958;10.994;2023-06-22T12:53:34;4.38;;;3.78;;
29906;SDS011;16776;50.958;10.994;2023-06-22T12:56:01;4.68;;;4.28;;
29906;SDS011;16776;50.958;10.994;2023-06-22T12:58:27;4.13;;;3.72;;
29906;SDS011;16776;50.958;10.994;2023-06-22T13:00:55;3.65;;;3.17;;
29906;SDS011;16776;50.958;10.994;2023-06-22T13:03:22;3.33;;;3.10;;
29906;SDS011;16776;50.958;10.994;2023-06-22T13:05:50;3.67;;;3.38;;
29906;SDS011;16776;50.958;10.994;2023-06-22T13:08:18;4.05;;;3.75;;
29906;SDS011;16776;50.958;10.994;2023-06-22T13:10:45;4.15;;;3.75;;
29906;SDS011;16776;50.958;10.994;2023-06-22T13:13:12;4.57;;;4.18;;
29906;SDS011;16776;50.958;10.994;2023-06-22T13:15:38;3.85;;;3.53;;
29906;SDS011;16776;50.958;10.994;2023-06-22T13:18:06;3.90;;;3.60;;
29906;SDS011;16776;50.958;10.994;2023-06-22T13:20:33;4.03;;;3.72;;
29906;SDS011;16776;50.958;10.994;2023-06-22T13:23:00;3.90;;;3.58;;
29906;SDS011;16776;50.958;10.994;2023-06-22T13:25:28;3.80;;;3.50;;
29906;SDS011;16776;50.958;10.994;2023-06-22T13:27:54;4.32;;;3.95;;
29906;SDS011;16776;50.958;10.994;2023-06-22T13:30:21;4.38;;;3.97;;
29906;SDS011;16776;50.958;10.994;2023-06-22T13:32:50;4.10;;;3.80;;
29906;SDS011;16776;50.958;10.994;2023-06-22T13:35:16;4.80;;;4.25;;
29906;SDS011;16776;50.958;10.994;2023-06-22T13:37:43;4.18;;;3.88;;
29906;SDS011;16776;50.958;10.994;2023-06-22T13:40:10;5.18;;;4.25;;
29906;SDS011;16776;50.958;10.994;2023-06-22T13:42:38;4.78;;;3.72;;
29906;SDS011;16776;50.958;10.994;2023-06-22T13:45:05;4.03;;;3.72;;
29906;SDS011;16776;50.958;10.994;2023-06-22T13:47:33;4.13;;;3.83;;
29906;SDS011;16776;50.958;10.994;2023-06-22T13:49:59;4.38;;;3.85;;
29906;SDS011;16776;50.958;10.994;2023-06-22T13:52:26;4.30;;;3.97;;
29906;SDS011;16776;50.958;10.994;2023-06-22T13:54:53;3.80;;;3.50;;
29906;SDS011;16776;50.958;10.994;2023-06-22T13:57:19;4.35;;;4.00;;
29906;SDS011;16776;50.958;10.994;2023-06-22T13:59:47;4.30;;;3.90;;
29906;SDS011;16776;50.958;10.994;2023-06-22T14:02:14;3.70;;;3.40;;
29906;SDS011;16776;50.958;10.994;2023-06-22T14:04:41;5.32;;;4.10;;
29906;SDS011;16776;50.958;10.994;2023-06-22T14:07:07;4.45;;;4.10;;
29906;SDS011;16776;50.958;10.994;2023-06-22T14:09:34;4.22;;;3.92;;
29906;SDS011;16776;50.958;10.994;2023-06-22T14:12:02;4.53;;;4.13;;
29906;SDS011;16776;50.958;10.994;2023-06-22T14:14:30;4.90;;;4.45;;
29906;SDS011;16776;50.958;10.994;2023-06-22T14:16:59;3.60;;;3.30;;
29906;SDS011;16776;50.958;10.994;2023-06-22T14:19:26;3.90;;;3.50;;
29906;SDS011;16776;50.958;10.994;2023-06-22T14:21:52;3.80;;;3.50;;
29906;SDS011;16776;50.958;10.994;2023-06-22T14:24:19;3.75;;;3.47;;
29906;SDS011;16776;50.958;10.994;2023-06-22T14:26:46;4.35;;;3.95;;
29906;SDS011;16776;50.958;10.994;2023-06-22T14:29:15;4.43;;;4.13;;
29906;SDS011;16776;50.958;10.994;2023-06-22T14:31:44;4.43;;;4.03;;
29906;SDS011;16776;50.958;10.994;2023-06-22T14:34:12;4.00;;;3.67;;
29906;SDS011;16776;50.958;10.994;2023-06-22T14:36:39;4.45;;;4.05;;